createdAt,value
2018-09-25T00:02:19.519Z,7.80
2018-09-25T00:04:54.259Z,6.53
2018-09-25T00:07:29.048Z,7.47
2018-09-25T00:10:03.855Z,4.22
2018-09-25T00:12:38.750Z,6.62
2018-09-25T00:15:13.651Z,9.23
2018-09-25T00:17:48.552Z,9.58
2018-09-25T00:20:23.284Z,10.60
2018-09-25T00:22:58.168Z,9.20
2018-09-25T00:25:32.845Z,8.55
2018-09-25T00:28:07.532Z,8.58
2018-09-25T00:30:42.398Z,6.22
2018-09-25T00:33:17.181Z,8.85
2018-09-25T00:35:52.134Z,12.58
2018-09-25T00:38:27.253Z,8.48
2018-09-25T00:41:02.170Z,6.12
2018-09-25T00:43:36.937Z,6.20
2018-09-25T00:46:11.796Z,5.90
2018-09-25T00:48:46.601Z,9.33
2018-09-25T00:51:21.457Z,8.03
2018-09-25T00:53:56.357Z,9.50
2018-09-25T00:56:31.176Z,5.75
2018-09-25T00:59:05.916Z,6.85
2018-09-25T01:01:40.821Z,6.97
2018-09-25T01:04:15.716Z,4.37
2018-09-25T01:06:50.666Z,7.08
2018-09-25T01:09:25.462Z,10.60
2018-09-25T01:12:00.452Z,6.67
2018-09-25T01:14:35.339Z,7.22
2018-09-25T01:17:10.293Z,7.60
2018-09-25T01:19:45.245Z,6.62
2018-09-25T01:22:20.038Z,3.85
2018-09-25T01:24:54.929Z,10.00
2018-09-25T01:27:29.810Z,8.83
2018-09-25T01:30:04.596Z,9.15
2018-09-25T01:32:39.367Z,9.48
2018-09-25T01:35:14.300Z,7.75
2018-09-25T01:37:49.166Z,7.53
2018-09-25T01:40:24.015Z,8.08
2018-09-25T01:42:58.789Z,12.53
2018-09-25T01:45:33.532Z,11.43
2018-09-25T01:48:08.351Z,10.72
2018-09-25T01:50:43.177Z,5.60
2018-09-25T01:53:18.079Z,4.67
2018-09-25T01:55:52.972Z,5.08
2018-09-25T01:58:28.066Z,10.05
2018-09-25T02:01:03.131Z,7.62
2018-09-25T02:03:37.945Z,5.22
2018-09-25T02:06:13.314Z,6.05
2018-09-25T02:08:48.261Z,8.25
2018-09-25T02:11:23.397Z,10.93
2018-09-25T02:13:58.241Z,4.92
2018-09-25T02:16:32.958Z,5.40
2018-09-25T02:19:07.842Z,12.93
2018-09-25T02:21:42.752Z,6.22
2018-09-25T02:24:17.632Z,4.25
2018-09-25T02:26:52.408Z,7.20
2018-09-25T02:29:27.368Z,10.93
2018-09-25T02:32:02.154Z,8.60
2018-09-25T02:34:37.123Z,7.97
2018-09-25T02:37:12.116Z,7.60
2018-09-25T02:39:46.904Z,6.80
2018-09-25T02:42:21.735Z,5.53
2018-09-25T02:44:56.549Z,8.85
2018-09-25T02:47:31.548Z,6.22
2018-09-25T02:50:06.898Z,8.05
2018-09-25T02:52:41.767Z,7.20
2018-09-25T02:55:16.500Z,6.90
2018-09-25T02:57:51.477Z,8.40
2018-09-25T03:00:26.122Z,4.58
2018-09-25T03:03:00.905Z,7.28
2018-09-25T03:05:35.756Z,6.87
2018-09-25T03:08:10.784Z,9.65
2018-09-25T03:10:45.558Z,8.48
2018-09-25T03:13:20.265Z,7.25
2018-09-25T03:15:55.258Z,6.33
2018-09-25T03:18:30.210Z,9.33
2018-09-25T03:21:04.934Z,7.92
2018-09-25T03:23:39.752Z,14.05
2018-09-25T03:26:14.666Z,5.83
2018-09-25T03:28:49.508Z,7.35
2018-09-25T03:31:24.457Z,8.13
2018-09-25T03:33:59.270Z,6.35
2018-09-25T03:36:34.161Z,9.20
2018-09-25T03:39:09.538Z,16.05
2018-09-25T03:41:44.333Z,15.05
2018-09-25T03:44:19.258Z,7.72
2018-09-25T03:46:53.923Z,7.58
2018-09-25T03:49:28.995Z,6.60
2018-09-25T03:52:03.840Z,6.87
2018-09-25T03:54:38.652Z,5.53
2018-09-25T03:57:13.684Z,7.92
2018-09-25T03:59:48.592Z,15.98
2018-09-25T04:02:23.552Z,5.75
2018-09-25T04:04:58.666Z,10.35
2018-09-25T04:07:33.916Z,12.23
2018-09-25T04:10:08.686Z,13.78
2018-09-25T04:12:43.762Z,6.05
2018-09-25T04:15:18.614Z,9.80
2018-09-25T04:17:53.510Z,7.40
2018-09-25T04:20:28.332Z,11.00
2018-09-25T04:23:03.443Z,6.65
2018-09-25T04:25:38.162Z,8.63
2018-09-25T04:28:13.054Z,13.45
2018-09-25T04:30:47.815Z,8.73
2018-09-25T04:33:22.546Z,6.42
2018-09-25T04:35:57.349Z,10.28
2018-09-25T04:38:32.141Z,8.03
2018-09-25T04:41:06.869Z,5.45
2018-09-25T04:43:41.935Z,8.75
2018-09-25T04:46:16.863Z,8.23
2018-09-25T04:48:51.913Z,12.85
2018-09-25T04:51:26.856Z,10.50
2018-09-25T04:54:01.659Z,6.30
2018-09-25T04:56:36.639Z,8.90
2018-09-25T04:59:11.492Z,7.70
2018-09-25T05:01:46.295Z,7.03
2018-09-25T05:04:21.171Z,9.75
2018-09-25T05:06:56.071Z,10.05
2018-09-25T05:09:30.873Z,6.67
2018-09-25T05:12:05.957Z,15.30
2018-09-25T05:14:40.616Z,8.70
2018-09-25T05:17:15.348Z,6.80
2018-09-25T05:19:50.374Z,12.45
2018-09-25T05:22:25.048Z,10.03
2018-09-25T05:24:59.931Z,9.20
2018-09-25T05:27:34.477Z,8.30
2018-09-25T05:30:09.460Z,10.82
2018-09-25T05:32:44.275Z,10.50
2018-09-25T05:35:19.246Z,13.90
2018-09-25T05:37:54.136Z,11.38
2018-09-25T05:40:29.081Z,9.30
2018-09-25T05:43:03.969Z,9.10
2018-09-25T05:45:38.698Z,7.50
2018-09-25T05:48:14.065Z,10.45
2018-09-25T05:50:48.905Z,10.60
2018-09-25T05:53:23.769Z,7.70
2018-09-25T05:55:58.441Z,9.20
2018-09-25T05:58:33.208Z,11.25
2018-09-25T06:01:08.335Z,13.13
2018-09-25T06:03:43.277Z,13.35
2018-09-25T06:06:18.253Z,11.75
2018-09-25T06:08:53.073Z,12.55
2018-09-25T06:11:28.068Z,8.10
2018-09-25T06:14:02.901Z,13.68
2018-09-25T06:16:37.875Z,11.50
2018-09-25T06:19:12.649Z,8.28
2018-09-25T06:21:47.578Z,9.95
2018-09-25T06:24:22.497Z,18.02
2018-09-25T06:26:57.437Z,16.42
2018-09-25T06:29:32.507Z,11.28
2018-09-25T06:32:07.393Z,14.23
2018-09-25T06:34:42.179Z,9.50
2018-09-25T06:37:17.161Z,9.08
2018-09-25T06:39:52.010Z,14.10
2018-09-25T06:42:26.964Z,15.98
2018-09-25T06:45:02.007Z,13.60
2018-09-25T06:47:36.726Z,7.95
2018-09-25T06:50:11.657Z,8.35
2018-09-25T06:52:46.597Z,10.78
2018-09-25T06:55:21.423Z,18.65
2018-09-25T06:57:56.250Z,17.25
2018-09-25T07:00:31.137Z,16.62
2018-09-25T07:03:05.942Z,17.30
2018-09-25T07:05:40.699Z,17.45
2018-09-25T07:08:15.638Z,15.58
2018-09-25T07:10:50.357Z,14.33
2018-09-25T07:13:25.163Z,11.60
2018-09-25T07:15:59.910Z,14.03
2018-09-25T07:18:34.779Z,19.60
2018-09-25T07:21:09.902Z,13.35
2018-09-25T07:23:44.746Z,14.07
2018-09-25T07:26:20.050Z,12.68
2018-09-25T07:28:54.817Z,12.98
2018-09-25T07:31:29.618Z,14.13
2018-09-25T07:34:04.397Z,15.43
2018-09-25T07:36:39.180Z,17.60
2018-09-25T07:39:15.698Z,15.05
2018-09-25T07:41:50.521Z,19.40
2018-09-25T07:44:25.242Z,17.65
2018-09-25T07:47:00.173Z,14.95
2018-09-25T07:49:35.024Z,12.90
2018-09-25T07:52:10.098Z,16.40
2018-09-25T07:54:45.017Z,24.23
2018-09-25T07:57:19.758Z,13.65
2018-09-25T07:59:54.507Z,22.93
2018-09-25T08:02:29.367Z,18.85
2018-09-25T08:05:04.393Z,22.82
2018-09-25T08:07:39.343Z,17.77
2018-09-25T08:10:14.693Z,11.33
2018-09-25T08:12:49.337Z,15.13
2018-09-25T08:15:24.160Z,13.20
2018-09-25T08:17:59.071Z,17.60
2018-09-25T08:20:34.040Z,19.42
2018-09-25T08:23:08.949Z,13.07
2018-09-25T08:25:43.811Z,16.55
2018-09-25T08:28:18.530Z,15.15
2018-09-25T08:30:53.639Z,17.60
2018-09-25T08:33:28.517Z,13.80
2018-09-25T08:36:03.503Z,19.23
2018-09-25T08:38:38.368Z,14.80
2018-09-25T08:41:13.190Z,13.70
2018-09-25T08:43:48.188Z,14.67
2018-09-25T08:46:23.216Z,13.30
2018-09-25T08:48:58.006Z,16.13
2018-09-25T08:51:32.749Z,18.10
2018-09-25T08:54:07.709Z,18.37
2018-09-25T08:56:42.631Z,14.97
2018-09-25T08:59:17.451Z,18.57
2018-09-25T09:01:53.222Z,11.33
2018-09-25T09:04:28.285Z,18.50
2018-09-25T09:07:03.639Z,14.27
2018-09-25T09:09:39.347Z,15.87
2018-09-25T09:12:14.168Z,14.90
2018-09-25T09:14:49.065Z,9.07
2018-09-25T09:17:23.913Z,9.00
2018-09-25T09:19:58.775Z,10.13
2018-09-25T09:22:33.544Z,9.63
2018-09-25T09:25:08.426Z,11.67
2018-09-25T09:27:43.596Z,9.70
2018-09-25T09:30:18.417Z,9.23
2018-09-25T09:32:53.164Z,9.70
2018-09-25T09:35:28.050Z,12.20
2018-09-25T09:38:03.011Z,9.73
2018-09-25T09:40:37.982Z,10.43
2018-09-25T09:43:12.966Z,6.20
2018-09-25T09:45:48.124Z,11.03
2018-09-25T09:48:22.843Z,8.67
2018-09-25T09:50:57.861Z,8.17
2018-09-25T09:53:32.810Z,9.13
2018-09-25T09:56:07.666Z,8.20
2018-09-25T09:58:42.505Z,7.57
2018-09-25T10:01:17.518Z,8.07
2018-09-25T10:03:52.418Z,8.00
2018-09-25T10:06:27.369Z,6.97
2018-09-25T10:09:02.271Z,8.93
2018-09-25T10:11:37.048Z,9.30
2018-09-25T10:14:12.105Z,6.17
2018-09-25T10:16:46.865Z,9.10
2018-09-25T10:19:21.530Z,8.63
2018-09-25T10:21:56.545Z,4.57
2018-09-25T10:24:31.405Z,6.90
2018-09-25T10:27:06.180Z,6.80
2018-09-25T10:29:41.017Z,11.33
2018-09-25T10:32:15.796Z,9.50
2018-09-25T10:34:50.715Z,6.20
2018-09-25T10:37:25.462Z,5.80
2018-09-25T10:40:00.420Z,6.30
2018-09-25T10:42:35.241Z,4.53
2018-09-25T10:45:10.545Z,5.50
2018-09-25T10:47:45.247Z,3.80
2018-09-25T10:50:20.806Z,3.37
2018-09-25T10:52:55.589Z,8.07
2018-09-25T10:55:30.540Z,4.20
2018-09-25T10:58:05.301Z,8.30
2018-09-25T11:00:40.443Z,3.90
2018-09-25T11:03:15.374Z,4.03
2018-09-25T11:05:50.161Z,6.20
2018-09-25T11:08:25.171Z,3.80
2018-09-25T11:10:59.967Z,6.40
2018-09-25T11:13:34.950Z,2.93
2018-09-25T11:16:09.781Z,4.23
2018-09-25T11:18:44.581Z,5.33
2018-09-25T11:21:19.473Z,6.37
2018-09-25T11:23:54.437Z,4.67
2018-09-25T11:26:29.214Z,5.90
2018-09-25T11:29:04.046Z,4.60
2018-09-25T11:31:38.794Z,4.40
2018-09-25T11:34:13.777Z,1.97
2018-09-25T11:36:48.512Z,8.87
2018-09-25T11:39:23.369Z,4.83
2018-09-25T11:41:58.279Z,9.40
2018-09-25T11:44:33.040Z,4.90
2018-09-25T11:47:07.870Z,4.57
2018-09-25T11:49:43.246Z,5.47
2018-09-25T11:52:18.266Z,3.50
2018-09-25T11:54:53.333Z,4.80
2018-09-25T11:57:28.140Z,3.70
2018-09-25T12:00:03.045Z,5.87
2018-09-25T12:02:37.973Z,4.40
2018-09-25T12:05:13.033Z,3.70
2018-09-25T12:07:48.000Z,5.70
2018-09-25T12:10:22.813Z,6.50
2018-09-25T12:12:57.578Z,4.20
2018-09-25T12:15:32.352Z,3.07
2018-09-25T12:18:07.213Z,6.30
2018-09-25T12:20:41.903Z,5.73
2018-09-25T12:23:16.802Z,9.43
2018-09-25T12:25:51.979Z,6.60
2018-09-25T12:28:26.776Z,2.83
2018-09-25T12:31:01.777Z,3.43
2018-09-25T12:33:36.558Z,4.13
2018-09-25T12:36:11.598Z,4.63
2018-09-25T12:38:46.439Z,2.60
2018-09-25T12:41:21.305Z,3.00
2018-09-25T12:43:56.038Z,3.57
2018-09-25T12:46:30.962Z,4.07
2018-09-25T12:49:05.986Z,3.77
2018-09-25T12:51:40.797Z,3.70
2018-09-25T12:54:15.642Z,3.10
2018-09-25T12:56:50.473Z,4.30
2018-09-25T12:59:25.243Z,4.67
2018-09-25T13:02:00.110Z,4.03
2018-09-25T13:04:34.862Z,3.43
2018-09-25T13:07:09.862Z,1.57
2018-09-25T13:09:44.818Z,3.10
2018-09-25T13:12:19.624Z,5.60
2018-09-25T13:14:54.529Z,1.70
2018-09-25T13:17:29.245Z,4.33
2018-09-25T13:20:04.176Z,4.47
2018-09-25T13:22:38.921Z,6.27
2018-09-25T13:25:13.728Z,3.17
2018-09-25T13:27:49.256Z,2.80
2018-09-25T13:30:24.337Z,4.87
2018-09-25T13:32:59.033Z,2.13
2018-09-25T13:35:33.866Z,5.73
2018-09-25T13:38:08.734Z,6.00
2018-09-25T13:40:43.399Z,4.20
2018-09-25T13:43:18.277Z,2.17
2018-09-25T13:45:53.094Z,4.67
2018-09-25T13:48:27.880Z,3.47
2018-09-25T13:51:02.763Z,2.97
2018-09-25T13:53:38.422Z,5.17
2018-09-25T13:56:14.594Z,4.73
2018-09-25T13:58:49.362Z,3.73
2018-09-25T14:01:24.476Z,8.13
2018-09-25T14:03:59.458Z,6.47
2018-09-25T14:06:34.355Z,2.13
2018-09-25T14:09:13.227Z,3.70
2018-09-25T14:11:48.342Z,3.13
2018-09-25T14:14:23.397Z,3.00
2018-09-25T14:16:58.294Z,3.00
2018-09-25T14:19:33.084Z,5.20
2018-09-25T14:22:08.081Z,3.07
2018-09-25T14:24:42.995Z,3.20
2018-09-25T14:27:17.858Z,2.50
2018-09-25T14:29:52.590Z,1.77
2018-09-25T14:32:27.505Z,6.13
2018-09-25T14:35:02.380Z,3.30
2018-09-25T14:37:37.328Z,2.00
2018-09-25T14:40:12.261Z,2.40
2018-09-25T14:42:47.031Z,5.10
2018-09-25T14:45:22.029Z,2.60
2018-09-25T14:47:56.878Z,1.70
2018-09-25T14:50:31.696Z,2.67
2018-09-25T14:53:06.416Z,3.63
2018-09-25T14:55:41.297Z,2.50
2018-09-25T14:58:16.178Z,2.50
2018-09-25T15:00:51.094Z,3.83
2018-09-25T15:03:25.881Z,6.10
2018-09-25T15:06:00.805Z,2.40
2018-09-25T15:08:35.725Z,6.87
2018-09-25T15:11:10.465Z,2.40
2018-09-25T15:13:45.531Z,2.23
2018-09-25T15:16:20.542Z,3.27
2018-09-25T15:18:55.421Z,2.67
2018-09-25T15:21:30.572Z,5.07
2018-09-25T15:24:05.331Z,5.80
2018-09-25T15:26:40.125Z,3.70
2018-09-25T15:29:14.991Z,3.03
2018-09-25T15:31:49.683Z,4.00
2018-09-25T15:34:24.490Z,2.70
2018-09-25T15:36:59.364Z,5.23
2018-09-25T15:39:34.137Z,5.63
2018-09-25T15:42:08.895Z,3.17
2018-09-25T15:44:43.659Z,2.60
2018-09-25T15:47:18.469Z,1.50
2018-09-25T15:49:53.415Z,3.30
2018-09-25T15:52:28.126Z,4.27
2018-09-25T15:55:03.037Z,2.33
2018-09-25T15:57:38.066Z,2.33
2018-09-25T16:00:13.339Z,3.47
2018-09-25T16:02:48.357Z,3.00
2018-09-25T16:05:23.116Z,2.93
2018-09-25T16:07:58.152Z,3.33
2018-09-25T16:10:33.032Z,6.73
2018-09-25T16:13:08.226Z,7.43
2018-09-25T16:15:43.234Z,5.57
2018-09-25T16:18:17.966Z,8.20
2018-09-25T16:20:52.899Z,4.53
2018-09-25T16:23:27.786Z,5.17
2018-09-25T16:26:02.971Z,5.43
2018-09-25T16:28:37.853Z,4.33
2018-09-25T16:31:13.072Z,4.57
2018-09-25T16:33:47.998Z,3.03
2018-09-25T16:36:22.929Z,4.10
2018-09-25T16:38:57.758Z,2.67
2018-09-25T16:41:32.716Z,3.63
2018-09-25T16:44:07.449Z,3.37
2018-09-25T16:46:42.424Z,5.13
2018-09-25T16:49:17.442Z,8.83
2018-09-25T16:51:52.569Z,3.93
2018-09-25T16:54:27.580Z,3.30
2018-09-25T16:57:02.500Z,5.00
2018-09-25T16:59:37.349Z,4.47
2018-09-25T17:02:12.203Z,6.23
2018-09-25T17:04:46.936Z,2.53
2018-09-25T17:07:22.375Z,5.30
2018-09-25T17:09:57.150Z,5.00
2018-09-25T17:12:31.930Z,3.10
2018-09-25T17:15:07.160Z,5.30
2018-09-25T17:17:41.942Z,7.53
2018-09-25T17:20:17.070Z,3.00
2018-09-25T17:22:52.255Z,2.70
2018-09-25T17:25:27.410Z,3.80
2018-09-25T17:28:02.377Z,3.00
2018-09-25T17:30:37.355Z,5.10
2018-09-25T17:33:12.239Z,7.50
2018-09-25T17:35:47.542Z,5.53
2018-09-25T17:38:22.638Z,5.40
2018-09-25T17:40:57.883Z,10.40
2018-09-25T17:43:33.178Z,8.73
2018-09-25T17:46:08.506Z,3.70
2018-09-25T17:48:43.716Z,8.95
2018-09-25T17:51:18.605Z,5.23
2018-09-25T17:53:54.252Z,3.83
2018-09-25T17:56:29.185Z,6.77
2018-09-25T17:59:04.040Z,4.35
2018-09-25T18:01:38.894Z,6.70
2018-09-25T18:04:13.875Z,3.87
2018-09-25T18:06:48.857Z,4.77
2018-09-25T18:09:24.089Z,4.78
2018-09-25T18:11:59.093Z,6.17
2018-09-25T18:14:35.515Z,3.62
2018-09-25T18:17:10.900Z,4.70
2018-09-25T18:19:46.746Z,8.23
2018-09-25T18:22:21.667Z,5.95
2018-09-25T18:24:56.508Z,6.78
2018-09-25T18:27:33.385Z,3.80
2018-09-25T18:30:08.581Z,4.10
2018-09-25T18:32:43.884Z,5.37
2018-09-25T18:35:19.006Z,7.30
2018-09-25T18:37:54.546Z,4.58
2018-09-25T18:40:29.808Z,4.22
2018-09-25T18:43:05.742Z,7.83
2018-09-25T18:45:42.390Z,9.13
2018-09-25T18:48:17.657Z,8.45
2018-09-25T18:50:52.756Z,9.58
2018-09-25T18:53:27.560Z,8.95
2018-09-25T18:56:02.381Z,6.10
2018-09-25T18:58:37.828Z,6.45
2018-09-25T19:01:14.333Z,6.95
2018-09-25T19:03:49.425Z,3.83
2018-09-25T19:06:24.605Z,7.15
2018-09-25T19:08:59.591Z,9.03
2018-09-25T19:11:34.693Z,13.40
2018-09-25T19:14:15.358Z,16.48
2018-09-25T19:16:50.358Z,20.45
2018-09-25T19:19:25.597Z,12.28
2018-09-25T19:22:00.896Z,12.37
2018-09-25T19:24:35.598Z,15.93
2018-09-25T19:27:10.731Z,12.13
2018-09-25T19:29:53.761Z,8.03
2018-09-25T19:32:28.969Z,11.20
2018-09-25T19:35:03.778Z,7.62
2018-09-25T19:37:39.260Z,7.22
2018-09-25T19:40:15.646Z,6.45
2018-09-25T19:42:51.445Z,5.05
2018-09-25T19:45:27.257Z,7.85
2018-09-25T19:48:02.296Z,10.15
2018-09-25T19:50:39.733Z,16.80
2018-09-25T19:53:14.655Z,14.60
2018-09-25T19:55:49.759Z,12.63
2018-09-25T19:58:24.553Z,8.68
2018-09-25T20:00:59.797Z,6.40
2018-09-25T20:03:35.021Z,8.90
2018-09-25T20:06:10.916Z,5.47
2018-09-25T20:08:46.605Z,7.58
2018-09-25T20:11:22.099Z,4.70
2018-09-25T20:13:57.100Z,5.78
2018-09-25T20:16:32.156Z,12.78
2018-09-25T20:19:08.054Z,8.90
2018-09-25T20:21:45.295Z,9.25
2018-09-25T20:24:20.412Z,15.63
2018-09-25T20:26:55.526Z,7.30
2018-09-25T20:29:30.472Z,9.80
2018-09-25T20:32:05.453Z,10.63
2018-09-25T20:34:40.660Z,10.18
2018-09-25T20:37:15.725Z,9.65
2018-09-25T20:39:50.585Z,14.23
2018-09-25T20:42:25.364Z,7.72
2018-09-25T20:45:00.154Z,10.23
2018-09-25T20:47:34.886Z,10.93
2018-09-25T20:50:09.976Z,6.70
2018-09-25T20:52:45.025Z,8.33
2018-09-25T20:55:20.076Z,6.92
2018-09-25T20:57:54.938Z,8.08
2018-09-25T21:00:30.526Z,6.25
2018-09-25T21:03:05.448Z,10.80
2018-09-25T21:05:40.277Z,8.85
2018-09-25T21:08:15.578Z,8.50
2018-09-25T21:10:50.403Z,8.98
2018-09-25T21:13:25.390Z,8.40
2018-09-25T21:16:00.264Z,7.15
2018-09-25T21:18:35.282Z,9.10
2018-09-25T21:21:10.348Z,9.88
2018-09-25T21:23:45.055Z,7.22
2018-09-25T21:26:19.793Z,6.87
2018-09-25T21:28:55.036Z,10.55
2018-09-25T21:31:29.782Z,5.72
2018-09-25T21:34:04.587Z,5.65
2018-09-25T21:36:39.462Z,7.60
2018-09-25T21:39:16.017Z,6.00
2018-09-25T21:41:50.993Z,6.40
2018-09-25T21:44:27.113Z,6.55
2018-09-25T21:47:02.056Z,6.60
2018-09-25T21:49:37.028Z,9.35
2018-09-25T21:52:11.926Z,6.78
2018-09-25T21:54:46.769Z,5.17
2018-09-25T21:57:21.729Z,5.65
2018-09-25T21:59:56.177Z,10.05
2018-09-25T22:02:31.000Z,6.20
2018-09-25T22:05:05.711Z,4.65
2018-09-25T22:07:41.476Z,5.92
2018-09-25T22:10:16.320Z,8.75
2018-09-25T22:12:51.197Z,5.58
2018-09-25T22:15:26.013Z,5.42
2018-09-25T22:18:01.134Z,7.33
2018-09-25T22:20:35.841Z,6.40
2018-09-25T22:23:10.625Z,8.08
2018-09-25T22:25:45.401Z,8.00
2018-09-25T22:28:20.141Z,7.08
2018-09-25T22:30:55.038Z,9.23
2018-09-25T22:33:29.821Z,5.00
2018-09-25T22:36:04.960Z,4.78
2018-09-25T22:38:40.012Z,6.60
2018-09-25T22:41:14.975Z,5.53
2018-09-25T22:43:49.688Z,5.10
2018-09-25T22:46:24.425Z,5.75
2018-09-25T22:48:59.372Z,7.15
2018-09-25T22:51:34.170Z,7.33
2018-09-25T22:54:09.191Z,5.53
2018-09-25T22:56:43.797Z,5.92
2018-09-25T22:59:18.754Z,4.55
2018-09-25T23:01:53.509Z,6.00
2018-09-25T23:04:28.267Z,7.05
2018-09-25T23:07:02.998Z,4.40
2018-09-25T23:09:37.711Z,9.90
2018-09-25T23:12:13.241Z,6.28
2018-09-25T23:14:48.026Z,4.58
2018-09-25T23:17:22.915Z,5.72
2018-09-25T23:19:57.666Z,10.00
2018-09-25T23:22:32.427Z,8.85
2018-09-25T23:25:07.211Z,4.37
2018-09-25T23:27:42.086Z,3.95
2018-09-25T23:30:17.285Z,7.47
2018-09-25T23:32:52.137Z,4.58
2018-09-25T23:35:26.969Z,3.70
2018-09-25T23:38:01.838Z,5.50
2018-09-25T23:40:36.889Z,5.92
2018-09-25T23:43:30.358Z,3.95
2018-09-25T23:46:07.057Z,5.67
2018-09-25T23:48:41.625Z,4.80
2018-09-25T23:51:17.053Z,7.67
2018-09-25T23:53:53.147Z,5.30
2018-09-25T23:56:45.561Z,5.05
2018-09-25T23:59:19.884Z,5.12
